»·PEaware :: N4217L KSNA-KBUR

N4217L :: KSNA-KBUR

FLIGHT INFORMATION

Flight Status: Arrived
Operator: Privately registered:
United States
More flights under this callsign
Pilot: James F. (31917)
Aircraft: PIPER PA-44 SEMINOLE
(PA44)
More flights by this aircraft type
Origin: KSNA John Wayne-Orange Co
United States
Destination: KBUR Bob Hope-Burbank
United States
More flights between these airports :: More routes between these airports
Route: +SLI V23 POPPR SMO125 SMO SMO311 SILEX+
File this flight plan on PilotEdge
Remarks: TEC route CSTP1
Altitude:
(Current/Filed)
4,000ft
Speed:
(Current/Filed)
130kts
Departed: 30-Nov-20 04:00 PM
Arrived: 30-Nov-20 04:36 PM
Distance/Time
Traveled:
40nm/0:36
Distance/Time
To Go:
Arrived

Flight Plot

Page will automatically refresh every two minutes.


Map Options




Map Legend


Flown Route
Filed Route
Departure Airport
Arrival Airport
Navaid (VOR, NDB)
Fix

Horizontal Profiles

Position Reports

Time Latitude Longitude Heading Altitude Ground
Speed
30-Nov-20 15:29 33.676146 -117.870775 357 53ft 0kts
30-Nov-20 15:30 33.676146 -117.870775 357 53ft 0kts
30-Nov-20 15:31 33.676146 -117.870775 357 53ft 0kts
30-Nov-20 15:32 33.676146 -117.870775 357 53ft 0kts
30-Nov-20 15:33 33.676146 -117.870775 357 53ft 0kts
30-Nov-20 15:34 33.676146 -117.870775 357 53ft 0kts
30-Nov-20 15:35 33.676146 -117.870775 357 53ft 0kts
30-Nov-20 15:36 33.676146 -117.870775 357 53ft 0kts
30-Nov-20 15:37 33.676146 -117.870775 357 53ft 0kts
30-Nov-20 15:38 33.676146 -117.870775 357 53ft 0kts
30-Nov-20 15:39 33.676146 -117.870775 357 53ft 0kts
30-Nov-20 15:40 33.676146 -117.870775 357 53ft 0kts
30-Nov-20 15:41 33.676146 -117.870775 357 53ft 0kts
30-Nov-20 15:42 33.676146 -117.870775 357 53ft 0kts
30-Nov-20 15:43 33.676146 -117.870775 357 53ft 0kts
30-Nov-20 15:44 33.676146 -117.870775 357 53ft 0kts
30-Nov-20 15:45 33.676146 -117.870775 357 53ft 0kts
30-Nov-20 15:46 33.676146 -117.870775 357 53ft 0kts
30-Nov-20 15:47 33.676146 -117.870775 357 53ft 0kts
30-Nov-20 15:48 33.676146 -117.870775 357 53ft 0kts
30-Nov-20 15:49 33.676146 -117.870775 357 53ft 0kts
30-Nov-20 15:50 33.676146 -117.870775 357 53ft 0kts
30-Nov-20 15:51 33.676146 -117.870775 357 53ft 0kts
30-Nov-20 15:52 33.676146 -117.870775 357 53ft 0kts
30-Nov-20 15:53 33.676146 -117.870775 357 53ft 0kts
30-Nov-20 15:54 33.676146 -117.870775 357 53ft 0kts
30-Nov-20 15:55 33.676146 -117.870775 357 53ft 0kts
30-Nov-20 15:56 33.676234 -117.870021 49 54ft 12kts
30-Nov-20 15:57 33.681232 -117.866478 115 43ft 2kts
30-Nov-20 15:58 33.681121 -117.866239 119 43ft 9kts
30-Nov-20 15:59 33.667153 -117.874620 216 392ft 114kts
30-Nov-20 16:00 33.644292 -117.906154 232 1480ft 126kts
30-Nov-20 16:01 33.623758 -117.937862 233 2982ft 115kts
30-Nov-20 16:02 33.604778 -117.968692 256 4045ft 135kts
30-Nov-20 16:03 33.612483 -118.014970 291 4054ft 145kts
30-Nov-20 16:04 33.644145 -118.036405 312 4037ft 144kts
30-Nov-20 16:05 33.651728 -118.082936 273 4037ft 140kts
30-Nov-20 16:06 33.670656 -118.119555 328 4035ft 135kts
30-Nov-20 16:07 33.701674 -118.145891 319 3993ft 137kts
30-Nov-20 16:09 33.730871 -118.175182 321 3994ft 136kts
30-Nov-20 16:10 33.760084 -118.204694 321 3996ft 137kts
30-Nov-20 16:11 33.789155 -118.233914 320 3995ft 136kts
30-Nov-20 16:12 33.818324 -118.263216 320 3998ft 136kts
30-Nov-20 16:13 33.847519 -118.292584 320 3997ft 136kts
30-Nov-20 16:14 33.876433 -118.321695 321 3998ft 136kts
30-Nov-20 16:15 33.905588 -118.351102 321 3998ft 136kts
30-Nov-20 16:16 33.934648 -118.380389 321 3998ft 136kts
30-Nov-20 16:17 33.963805 -118.409798 321 3997ft 136kts
30-Nov-20 16:18 33.992432 -118.438707 321 4000ft 136kts
30-Nov-20 16:19 34.021851 -118.467656 328 3997ft 136kts
30-Nov-20 16:20 34.053709 -118.492175 324 3996ft 137kts
30-Nov-20 16:21 34.085497 -118.518086 329 4003ft 137kts
30-Nov-20 16:22 34.116879 -118.544600 313 4023ft 139kts
30-Nov-20 16:23 34.134269 -118.586226 293 3997ft 139kts
30-Nov-20 16:24 34.148122 -118.629636 292 3989ft 138kts
30-Nov-20 16:24 34.159707 -118.665583 292 3993ft 138kts
30-Nov-20 16:26 34.188937 -118.675085 52 3987ft 133kts
30-Nov-20 16:26 34.202477 -118.641460 80 3999ft 135kts
30-Nov-20 16:27 34.200425 -118.596000 90 4001ft 130kts
30-Nov-20 16:29 34.200633 -118.553843 90 3708ft 99kts
30-Nov-20 16:29 34.199870 -118.525828 88 3263ft 96kts
30-Nov-20 16:30 34.199539 -118.494878 89 2770ft 87kts
30-Nov-20 16:31 34.199128 -118.462840 88 2276ft 99kts
30-Nov-20 16:32 34.198742 -118.428907 84 1740ft 100kts
30-Nov-20 16:33 34.198063 -118.396640 93 1226ft 94kts
30-Nov-20 16:34 34.198024 -118.368011 94 740ft 71kts
30-Nov-20 16:35 34.196988 -118.360301 203 715ft 0kts
30-Nov-20 16:36 34.196988 -118.360301 203 715ft 0kts
30-Nov-20 16:37 34.196838 -118.361763 271 718ft 25kts
30-Nov-20 16:38 34.196403 -118.367124 242 727ft 10kts
30-Nov-20 16:39 34.196460 -118.367611 356 728ft 0kts

Navigation Log

Ident Type
Flight plan parsing failed, navigation log unavailable